createdAt,value
2019-03-24T00:00:03.409Z,9.23
2019-03-24T00:05:20.528Z,9.27
2019-03-24T00:07:48.944Z,10.23
2019-03-24T00:10:17.352Z,9.70
2019-03-24T00:12:45.772Z,9.30
2019-03-24T00:15:25.296Z,9.67
2019-03-24T00:17:44.698Z,9.50
2019-03-24T00:20:13.460Z,9.80
2019-03-24T00:22:41.876Z,9.53
2019-03-24T00:25:10.361Z,9.87
2019-03-24T00:27:38.801Z,9.70
2019-03-24T00:30:09.215Z,9.87
2019-03-24T00:32:37.630Z,8.30
2019-03-24T00:35:07.560Z,8.73
2019-03-24T00:37:35.664Z,9.40
2019-03-24T00:40:08.405Z,9.30
2019-03-24T00:42:36.805Z,8.70
2019-03-24T00:45:09.520Z,10.23
2019-03-24T00:47:37.920Z,9.80
2019-03-24T00:50:07.076Z,10.73
2019-03-24T00:52:37.172Z,9.53
2019-03-24T00:55:07.581Z,10.03
2019-03-24T00:57:37.578Z,9.70
2019-03-24T01:00:06.767Z,9.03
2019-03-24T01:02:35.176Z,9.20
2019-03-24T01:05:04.663Z,9.83
2019-03-24T01:07:33.061Z,9.07
2019-03-24T01:10:01.478Z,9.53
2019-03-24T01:12:29.905Z,10.07
2019-03-24T01:14:57.992Z,8.90
2019-03-24T01:17:26.063Z,9.67
2019-03-24T01:19:54.149Z,9.20
2019-03-24T01:22:22.224Z,9.07
2019-03-24T01:24:50.340Z,9.03
2019-03-24T01:27:18.737Z,8.30
2019-03-24T01:29:46.839Z,9.77
2019-03-24T01:32:15.258Z,8.90
2019-03-24T01:34:43.678Z,9.53
2019-03-24T01:37:12.092Z,9.20
2019-03-24T01:39:40.514Z,9.60
2019-03-24T01:42:08.904Z,9.33
2019-03-24T01:44:37.321Z,8.73
2019-03-24T01:47:05.418Z,8.87
2019-03-24T01:49:33.861Z,9.80
2019-03-24T01:52:02.281Z,9.30
2019-03-24T01:54:30.720Z,9.27
2019-03-24T01:56:59.116Z,9.77
2019-03-24T01:59:46.882Z,9.03
2019-03-24T02:02:15.370Z,8.67
2019-03-24T02:04:43.820Z,8.67
2019-03-24T02:07:12.221Z,10.07
2019-03-24T02:09:40.655Z,9.40
2019-03-24T02:12:09.132Z,9.40
2019-03-24T02:14:37.208Z,8.83
2019-03-24T02:17:05.705Z,8.83
2019-03-24T02:19:33.790Z,9.37
2019-03-24T02:22:02.191Z,8.80
2019-03-24T02:24:30.601Z,7.87
2019-03-24T02:26:59.019Z,7.53
2019-03-24T02:29:27.112Z,8.70
2019-03-24T02:31:55.695Z,8.53
2019-03-24T02:34:24.109Z,8.00
2019-03-24T02:36:52.514Z,8.27
2019-03-24T02:39:20.939Z,7.67
2019-03-24T02:41:49.356Z,8.03
2019-03-24T02:44:17.795Z,7.70
2019-03-24T02:46:46.197Z,7.57
2019-03-24T02:49:14.593Z,8.70
2019-03-24T02:51:43.039Z,7.63
2019-03-24T02:54:30.790Z,7.40
2019-03-24T02:56:59.193Z,7.60
2019-03-24T02:59:27.630Z,8.20
2019-03-24T03:01:56.040Z,8.87
2019-03-24T03:04:24.144Z,8.67
2019-03-24T03:06:52.257Z,8.53
2019-03-24T03:09:20.341Z,7.57
2019-03-24T03:11:48.765Z,7.87
2019-03-24T03:14:16.841Z,8.20
2019-03-24T03:16:45.252Z,7.97
2019-03-24T03:19:13.660Z,8.20
2019-03-24T03:21:41.773Z,7.67
2019-03-24T03:24:10.169Z,7.73
2019-03-24T03:26:38.610Z,8.23
2019-03-24T03:29:06.997Z,9.07
2019-03-24T03:31:35.443Z,7.67
2019-03-24T03:34:03.900Z,8.57
2019-03-24T03:36:32.314Z,8.60
2019-03-24T03:39:00.721Z,8.77
2019-03-24T03:41:28.812Z,7.93
2019-03-24T03:43:57.209Z,7.03
2019-03-24T03:46:25.622Z,7.47
2019-03-24T03:48:54.048Z,7.77
2019-03-24T03:51:22.118Z,8.03
2019-03-24T03:53:50.548Z,7.53
2019-03-24T03:56:18.979Z,7.27
2019-03-24T03:58:47.459Z,7.53
2019-03-24T04:01:15.542Z,8.10
2019-03-24T04:03:43.997Z,8.33
2019-03-24T04:06:12.418Z,8.07
2019-03-24T04:08:40.825Z,7.20
2019-03-24T04:11:09.288Z,8.53
2019-03-24T04:13:37.700Z,9.40
2019-03-24T04:16:06.117Z,8.93
2019-03-24T04:18:34.242Z,8.13
2019-03-24T04:21:02.705Z,8.83
2019-03-24T04:23:31.121Z,8.13
2019-03-24T04:25:59.529Z,7.70
2019-03-24T04:28:27.951Z,7.80
2019-03-24T04:30:56.364Z,7.97
2019-03-24T04:33:24.447Z,8.23
2019-03-24T04:35:52.844Z,8.40
2019-03-24T04:38:21.326Z,8.33
2019-03-24T04:40:49.731Z,8.87
2019-03-24T04:43:18.157Z,7.53
2019-03-24T04:45:46.580Z,7.67
2019-03-24T04:48:15.023Z,8.43
2019-03-24T04:50:43.424Z,8.57
2019-03-24T04:53:11.832Z,8.40
2019-03-24T04:55:40.256Z,8.30
2019-03-24T04:58:08.712Z,7.77
2019-03-24T05:00:38.950Z,8.77
2019-03-24T05:03:07.893Z,7.97
2019-03-24T05:05:35.980Z,7.27
2019-03-24T05:08:04.567Z,9.00
2019-03-24T05:10:32.991Z,8.50
2019-03-24T05:13:01.478Z,8.73
2019-03-24T05:15:29.889Z,8.27
2019-03-24T05:17:58.317Z,8.93
2019-03-24T05:20:26.747Z,7.70
2019-03-24T05:22:55.140Z,7.90
2019-03-24T05:25:23.791Z,7.50
2019-03-24T05:27:52.268Z,8.50
2019-03-24T05:30:20.701Z,8.57
2019-03-24T05:32:48.772Z,7.60
2019-03-24T05:35:17.195Z,8.17
2019-03-24T05:37:45.604Z,7.57
2019-03-24T05:40:14.101Z,7.57
2019-03-24T05:42:42.496Z,8.07
2019-03-24T05:45:11.252Z,6.97
2019-03-24T05:47:39.692Z,7.50
2019-03-24T05:50:07.936Z,7.80
2019-03-24T05:52:36.411Z,7.50
2019-03-24T05:55:06.265Z,7.80
2019-03-24T05:57:34.661Z,7.60
2019-03-24T06:00:05.176Z,7.73
2019-03-24T06:02:33.654Z,8.37
2019-03-24T06:05:02.079Z,8.10
2019-03-24T06:07:30.487Z,9.43
2019-03-24T06:09:58.917Z,7.77
2019-03-24T06:12:27.005Z,8.57
2019-03-24T06:14:55.413Z,7.53
2019-03-24T06:17:23.817Z,8.80
2019-03-24T06:19:52.252Z,7.40
2019-03-24T06:22:20.673Z,8.17
2019-03-24T06:24:49.080Z,9.17
2019-03-24T06:27:17.497Z,7.87
2019-03-24T06:29:45.910Z,9.10
2019-03-24T06:32:14.348Z,7.50
2019-03-24T06:34:42.829Z,8.17
2019-03-24T06:37:11.237Z,7.60
2019-03-24T06:39:39.653Z,7.77
2019-03-24T06:42:08.095Z,7.17
2019-03-24T06:44:36.549Z,7.50
2019-03-24T06:47:04.945Z,6.85
2019-03-24T06:49:33.033Z,7.67
2019-03-24T06:52:01.452Z,7.72
2019-03-24T06:54:29.563Z,8.30
2019-03-24T06:56:57.972Z,8.13
2019-03-24T06:59:26.402Z,7.65
2019-03-24T07:01:54.800Z,7.80
2019-03-24T07:04:23.218Z,8.10
2019-03-24T07:06:51.644Z,8.88
2019-03-24T07:09:20.052Z,8.90
2019-03-24T07:11:48.471Z,7.45
2019-03-24T07:14:16.898Z,7.62
2019-03-24T07:16:45.305Z,7.70
2019-03-24T07:19:13.742Z,7.20
2019-03-24T07:21:42.158Z,7.05
2019-03-24T07:24:10.241Z,7.10
2019-03-24T07:26:38.656Z,6.75
2019-03-24T07:29:07.083Z,6.97
2019-03-24T07:31:35.512Z,7.10
2019-03-24T07:34:04.355Z,6.75
2019-03-24T07:36:32.802Z,7.20
2019-03-24T07:39:01.224Z,6.55
2019-03-24T07:41:29.633Z,6.95
2019-03-24T07:43:58.117Z,7.45
2019-03-24T07:46:26.543Z,6.62
2019-03-24T07:48:54.949Z,7.58
2019-03-24T07:51:23.386Z,7.37
2019-03-24T07:53:51.792Z,7.25
2019-03-24T07:56:20.219Z,6.90
2019-03-24T07:58:48.676Z,7.53
2019-03-24T08:01:17.096Z,6.72
2019-03-24T08:03:45.153Z,7.40
2019-03-24T08:06:13.576Z,6.25
2019-03-24T08:08:44.386Z,7.45
2019-03-24T08:11:11.488Z,7.00
2019-03-24T08:13:39.888Z,7.33
2019-03-24T08:16:08.372Z,6.35
2019-03-24T08:18:36.809Z,6.87
2019-03-24T08:21:05.231Z,7.10
2019-03-24T08:23:33.706Z,6.85
2019-03-24T08:26:02.120Z,8.15
2019-03-24T08:28:30.548Z,6.70
2019-03-24T08:30:58.970Z,7.08
2019-03-24T08:33:27.372Z,7.08
2019-03-24T08:35:55.464Z,7.47
2019-03-24T08:38:23.869Z,7.40
2019-03-24T08:40:52.360Z,7.42
2019-03-24T08:43:20.456Z,7.78
2019-03-24T08:45:48.876Z,8.40
2019-03-24T08:48:17.361Z,7.80
2019-03-24T08:50:45.444Z,8.38
2019-03-24T08:53:13.849Z,8.03
2019-03-24T08:55:42.278Z,8.90
2019-03-24T08:58:10.693Z,8.50
2019-03-24T09:00:39.113Z,8.93
2019-03-24T09:03:07.551Z,8.63
2019-03-24T09:05:35.940Z,10.45
2019-03-24T09:08:04.037Z,10.75
2019-03-24T09:10:32.444Z,9.80
2019-03-24T09:13:00.881Z,10.13
2019-03-24T09:15:28.956Z,11.20
2019-03-24T09:17:57.066Z,11.18
2019-03-24T09:20:25.480Z,9.63
2019-03-24T09:22:53.910Z,11.48
2019-03-24T09:25:23.924Z,10.35
2019-03-24T09:27:52.345Z,11.25
2019-03-24T09:30:29.008Z,10.05
2019-03-24T09:32:57.113Z,11.57
2019-03-24T09:35:25.625Z,13.35
2019-03-24T09:37:54.064Z,12.07
2019-03-24T09:40:30.065Z,13.83
2019-03-24T09:42:59.522Z,13.60
2019-03-24T09:45:29.070Z,14.33
2019-03-24T09:47:57.492Z,13.90
2019-03-24T09:50:25.932Z,12.45
2019-03-24T09:52:54.349Z,12.80
2019-03-24T09:55:22.781Z,13.45
2019-03-24T09:57:51.205Z,14.13
2019-03-24T10:00:19.629Z,14.50
2019-03-24T10:02:47.723Z,13.88
2019-03-24T10:05:16.221Z,15.10
2019-03-24T10:07:44.639Z,15.98
2019-03-24T10:10:13.188Z,17.25
2019-03-24T10:12:41.656Z,17.00
2019-03-24T10:15:10.369Z,17.75
2019-03-24T10:17:38.788Z,18.80
2019-03-24T10:20:07.272Z,17.62
2019-03-24T10:22:35.693Z,17.55
2019-03-24T10:25:06.248Z,17.32
2019-03-24T10:27:34.664Z,16.00
2019-03-24T10:30:03.751Z,17.77
2019-03-24T10:32:32.173Z,18.52
2019-03-24T10:35:00.623Z,17.98
2019-03-24T10:37:29.064Z,18.30
2019-03-24T10:40:24.222Z,17.37
2019-03-24T10:42:47.000Z,18.67
2019-03-24T10:45:15.145Z,18.48
2019-03-24T10:47:43.580Z,18.32
2019-03-24T10:50:14.262Z,20.60
2019-03-24T10:52:42.160Z,18.95
2019-03-24T10:55:12.472Z,19.67
2019-03-24T10:57:41.045Z,20.57
2019-03-24T11:00:14.284Z,22.20
2019-03-24T11:02:42.712Z,20.37
2019-03-24T11:05:11.276Z,18.90
2019-03-24T11:07:39.777Z,20.30
2019-03-24T11:10:09.250Z,20.97
2019-03-24T11:12:37.351Z,18.45
2019-03-24T11:15:07.978Z,17.95
2019-03-24T11:17:36.421Z,18.07
2019-03-24T11:20:07.666Z,18.25
2019-03-24T11:22:36.092Z,18.57
2019-03-24T11:25:08.379Z,18.67
2019-03-24T11:27:37.000Z,18.67
2019-03-24T11:30:11.309Z,17.42
2019-03-24T11:32:40.597Z,15.65
2019-03-24T11:35:09.675Z,16.80
2019-03-24T11:37:38.160Z,17.07
2019-03-24T11:40:07.028Z,17.12
2019-03-24T11:42:35.110Z,18.15
2019-03-24T11:45:07.592Z,17.85
2019-03-24T11:47:36.181Z,16.42
2019-03-24T11:50:09.272Z,17.55
2019-03-24T11:52:38.054Z,16.80
2019-03-24T11:55:08.537Z,15.03
2019-03-24T11:57:37.572Z,16.60
2019-03-24T12:00:11.980Z,15.60
2019-03-24T12:02:40.539Z,16.73
2019-03-24T12:05:09.829Z,17.48
2019-03-24T12:07:37.972Z,15.80
2019-03-24T12:10:06.691Z,17.73
2019-03-24T12:12:34.852Z,17.95
2019-03-24T12:15:05.330Z,18.95
2019-03-24T12:17:33.559Z,18.07
2019-03-24T12:20:01.674Z,16.60
2019-03-24T12:22:30.068Z,18.00
2019-03-24T12:24:58.512Z,18.27
2019-03-24T12:27:26.948Z,18.42
2019-03-24T12:29:55.020Z,18.42
2019-03-24T12:32:23.462Z,17.85
2019-03-24T12:34:51.887Z,18.57
2019-03-24T12:37:20.293Z,18.07
2019-03-24T12:39:48.712Z,16.70
2019-03-24T12:42:17.130Z,18.37
2019-03-24T12:44:45.589Z,17.10
2019-03-24T12:47:13.670Z,17.17
2019-03-24T12:49:42.077Z,17.87
2019-03-24T12:52:10.169Z,18.45
2019-03-24T12:54:38.593Z,18.27
2019-03-24T12:57:06.701Z,18.95
2019-03-24T12:59:35.132Z,19.20
2019-03-24T13:02:03.556Z,17.17
2019-03-24T13:04:31.970Z,18.23
2019-03-24T13:07:00.418Z,17.35
2019-03-24T13:09:28.844Z,18.05
2019-03-24T13:11:57.338Z,17.37
2019-03-24T13:14:25.824Z,18.27
2019-03-24T13:16:54.404Z,17.65
2019-03-24T13:19:22.857Z,17.32
2019-03-24T13:21:51.386Z,17.87
2019-03-24T13:24:19.823Z,18.27
2019-03-24T13:26:48.316Z,16.85
2019-03-24T13:29:16.883Z,17.32
2019-03-24T13:31:45.400Z,17.90
2019-03-24T13:34:13.800Z,17.85
2019-03-24T13:36:42.244Z,18.87
2019-03-24T13:39:10.701Z,16.85
2019-03-24T13:41:39.177Z,17.87
2019-03-24T13:44:07.670Z,18.98
2019-03-24T13:46:36.092Z,19.55
2019-03-24T13:49:04.504Z,17.90
2019-03-24T13:51:32.993Z,18.50
2019-03-24T13:54:01.110Z,18.37
2019-03-24T13:56:29.569Z,19.02
2019-03-24T13:58:57.969Z,17.92
2019-03-24T14:01:26.088Z,18.85
2019-03-24T14:03:54.509Z,18.75
2019-03-24T14:06:22.606Z,17.50
2019-03-24T14:08:51.009Z,17.35
2019-03-24T14:11:19.091Z,17.60
2019-03-24T14:13:47.532Z,17.73
2019-03-24T14:16:15.966Z,17.07
2019-03-24T14:18:44.414Z,17.00
2019-03-24T14:21:12.857Z,17.37
2019-03-24T14:23:40.979Z,17.05
2019-03-24T14:26:09.379Z,18.40
2019-03-24T14:28:37.463Z,16.87
2019-03-24T14:31:05.876Z,16.62
2019-03-24T14:33:34.288Z,17.12
2019-03-24T14:36:02.737Z,17.48
2019-03-24T14:38:31.201Z,16.82
2019-03-24T14:40:59.632Z,17.37
2019-03-24T14:43:28.065Z,17.70
2019-03-24T14:45:56.473Z,16.80
2019-03-24T14:48:24.906Z,17.40
2019-03-24T14:50:54.670Z,15.18
2019-03-24T14:53:23.464Z,16.23
2019-03-24T14:55:51.878Z,15.65
2019-03-24T14:58:20.314Z,16.62
2019-03-24T15:00:48.478Z,16.67
2019-03-24T15:03:36.238Z,16.80
2019-03-24T15:06:18.590Z,16.95
2019-03-24T15:08:49.368Z,16.80
2019-03-24T15:11:17.787Z,16.12
2019-03-24T15:13:46.233Z,16.07
2019-03-24T15:16:14.667Z,16.50
2019-03-24T15:18:43.089Z,15.85
2019-03-24T15:21:11.693Z,15.28
2019-03-24T15:23:40.245Z,15.28
2019-03-24T15:26:08.649Z,17.70
2019-03-24T15:28:36.729Z,15.90
2019-03-24T15:31:05.150Z,15.48
2019-03-24T15:33:33.588Z,15.95
2019-03-24T15:36:01.691Z,15.85
2019-03-24T15:38:30.184Z,15.85
2019-03-24T15:40:58.600Z,16.40
2019-03-24T15:43:27.206Z,15.88
2019-03-24T15:45:55.710Z,15.72
2019-03-24T15:48:24.145Z,15.72
2019-03-24T15:50:52.561Z,16.25
2019-03-24T15:53:21.093Z,15.83
2019-03-24T15:56:08.505Z,15.68
2019-03-24T15:58:36.940Z,15.68
2019-03-24T16:01:05.345Z,15.45
2019-03-24T16:03:33.762Z,15.25
2019-03-24T16:06:01.849Z,16.97
2019-03-24T16:08:29.930Z,16.80
2019-03-24T16:10:58.340Z,15.50
2019-03-24T16:13:26.781Z,16.32
2019-03-24T16:15:55.559Z,14.83
2019-03-24T16:18:24.002Z,15.63
2019-03-24T16:20:52.096Z,15.83
2019-03-24T16:23:20.223Z,14.55
2019-03-24T16:25:48.615Z,14.65
2019-03-24T16:28:22.776Z,14.73
2019-03-24T16:30:51.189Z,14.07
2019-03-24T16:33:19.276Z,14.05
2019-03-24T16:35:47.415Z,14.03
2019-03-24T16:38:15.512Z,13.18
2019-03-24T16:40:43.933Z,14.60
2019-03-24T16:46:07.573Z,13.90
2019-03-24T16:48:36.944Z,14.43
2019-03-24T16:54:08.665Z,13.95
2019-03-24T16:56:37.067Z,13.38
2019-03-24T16:59:05.495Z,12.05
2019-03-24T17:01:33.910Z,13.10
2019-03-24T17:04:02.425Z,13.38
2019-03-24T17:06:30.825Z,14.55
2019-03-24T17:08:59.252Z,14.70
2019-03-24T17:11:27.652Z,18.90
2019-03-24T17:13:55.740Z,16.90
2019-03-24T17:16:24.153Z,16.82
2019-03-24T17:18:52.256Z,14.73
2019-03-24T17:21:26.652Z,15.75
2019-03-24T17:23:55.091Z,14.40
2019-03-24T17:26:23.492Z,14.13
2019-03-24T17:28:51.928Z,14.07
2019-03-24T17:31:20.012Z,13.48
2019-03-24T17:33:48.440Z,13.55
2019-03-24T17:36:16.872Z,14.68
2019-03-24T17:38:45.285Z,15.55
2019-03-24T17:41:13.709Z,14.63
2019-03-24T17:43:41.791Z,15.10
2019-03-24T17:46:53.229Z,16.82
2019-03-24T17:49:21.652Z,16.35
2019-03-24T17:52:00.182Z,17.67
2019-03-24T17:54:20.005Z,15.70
2019-03-24T17:56:48.457Z,16.37
2019-03-24T17:59:16.631Z,17.25
2019-03-24T18:01:45.037Z,15.35
2019-03-24T18:04:13.461Z,17.85
2019-03-24T18:06:41.948Z,16.32
2019-03-24T18:09:10.364Z,16.62
2019-03-24T18:11:38.760Z,19.15
2019-03-24T18:14:07.196Z,18.65
2019-03-24T18:16:35.308Z,18.05
2019-03-24T18:19:03.710Z,20.32
2019-03-24T18:21:32.157Z,20.37
2019-03-24T18:24:00.558Z,21.50
2019-03-24T18:26:28.976Z,22.80
2019-03-24T18:28:57.419Z,21.85
2019-03-24T18:31:25.897Z,21.85
2019-03-24T18:33:54.029Z,22.98
2019-03-24T18:36:22.484Z,23.75
2019-03-24T18:38:50.898Z,21.68
2019-03-24T18:41:19.329Z,22.75
2019-03-24T18:43:47.759Z,22.13
2019-03-24T18:46:16.185Z,21.90
2019-03-24T18:48:44.276Z,22.30
2019-03-24T18:51:12.359Z,22.40
2019-03-24T18:53:40.793Z,22.77
2019-03-24T18:56:08.887Z,23.75
2019-03-24T18:58:40.009Z,23.00
2019-03-24T19:01:14.318Z,23.42
2019-03-24T19:03:42.400Z,25.23
2019-03-24T19:06:10.489Z,24.07
2019-03-24T19:08:38.902Z,24.27
2019-03-24T19:11:07.322Z,22.73
2019-03-24T19:13:35.724Z,25.15
2019-03-24T19:16:04.224Z,23.07
2019-03-24T19:18:32.658Z,23.50
2019-03-24T19:21:01.098Z,22.40
2019-03-24T19:26:05.476Z,21.50
2019-03-24T19:28:33.556Z,22.37
2019-03-24T19:31:02.036Z,23.95
2019-03-24T19:33:30.726Z,21.85
2019-03-24T19:35:59.425Z,20.57
2019-03-24T19:41:44.794Z,20.90
2019-03-24T19:44:13.236Z,21.65
2019-03-24T19:46:41.648Z,22.00
2019-03-24T19:49:10.068Z,21.23
2019-03-24T19:51:38.494Z,20.82
2019-03-24T19:54:26.241Z,21.97
2019-03-24T19:56:54.430Z,21.77
2019-03-24T19:59:22.870Z,21.80
2019-03-24T20:01:51.332Z,20.45
2019-03-24T20:04:19.423Z,22.15
2019-03-24T20:06:47.939Z,20.82
2019-03-24T20:09:16.367Z,20.97
2019-03-24T20:11:44.974Z,21.17
2019-03-24T20:14:13.619Z,20.40
2019-03-24T20:16:42.135Z,21.80
2019-03-24T20:19:10.548Z,21.62
2019-03-24T20:21:38.981Z,21.75
2019-03-24T20:24:07.422Z,20.65
2019-03-24T20:26:35.820Z,21.30
2019-03-24T20:29:03.987Z,21.80
2019-03-24T20:31:32.060Z,22.15
2019-03-24T20:34:00.501Z,22.80
2019-03-24T20:36:28.989Z,22.35
2019-03-24T20:41:35.880Z,21.85
2019-03-24T20:44:04.301Z,21.73
2019-03-24T20:46:32.709Z,22.15
2019-03-24T20:49:00.829Z,23.92
2019-03-24T20:51:28.974Z,21.85
2019-03-24T20:53:57.421Z,23.27
2019-03-24T20:56:25.833Z,22.90
2019-03-24T20:58:54.280Z,24.75
2019-03-24T21:04:21.597Z,24.40
2019-03-24T21:06:50.053Z,24.05
2019-03-24T21:09:18.556Z,22.62
2019-03-24T21:11:47.033Z,23.73
2019-03-24T21:14:15.476Z,22.13
2019-03-24T21:16:43.908Z,22.73
2019-03-24T21:19:12.032Z,23.52
2019-03-24T21:21:40.172Z,23.50
2019-03-24T21:24:08.260Z,24.10
2019-03-24T21:29:19.978Z,23.52
2019-03-24T21:31:48.064Z,23.95
2019-03-24T21:34:16.489Z,22.22
2019-03-24T21:36:44.930Z,22.10
2019-03-24T21:39:13.391Z,22.98
2019-03-24T21:41:41.795Z,21.73
2019-03-24T21:44:10.216Z,24.00
2019-03-24T21:46:38.647Z,24.00
2019-03-24T21:49:07.056Z,22.70
2019-03-24T21:51:35.472Z,22.40
2019-03-24T21:54:03.911Z,22.98
2019-03-24T21:56:32.308Z,22.45
2019-03-24T21:59:00.728Z,23.18
2019-03-24T22:01:28.904Z,23.50
2019-03-24T22:03:57.328Z,22.60
2019-03-24T22:06:25.418Z,22.55
2019-03-24T22:08:53.853Z,21.62
2019-03-24T22:11:22.248Z,21.70
2019-03-24T22:13:50.693Z,22.13
2019-03-24T22:16:19.115Z,21.40
2019-03-24T22:18:47.549Z,22.02
2019-03-24T22:21:15.648Z,22.27
2019-03-24T22:23:51.864Z,22.80
2019-03-24T22:26:13.892Z,21.23
2019-03-24T22:28:42.316Z,21.68
2019-03-24T22:31:10.747Z,21.60
2019-03-24T22:33:39.169Z,20.92
2019-03-24T22:36:07.585Z,21.95
2019-03-24T22:38:36.022Z,21.65
2019-03-24T22:41:04.601Z,22.22
2019-03-24T22:43:33.018Z,21.02
2019-03-24T22:46:01.424Z,21.87
2019-03-24T22:48:29.824Z,22.10
2019-03-24T22:53:44.009Z,21.17
2019-03-24T22:56:12.451Z,20.00
2019-03-24T22:58:40.916Z,21.17
2019-03-24T23:01:10.473Z,21.45
2019-03-24T23:03:38.877Z,23.07
2019-03-24T23:06:07.373Z,21.10
2019-03-24T23:08:35.777Z,21.12
2019-03-24T23:13:49.964Z,20.65
2019-03-24T23:16:18.387Z,20.17
2019-03-24T23:21:15.768Z,21.82
2019-03-24T23:23:44.176Z,22.45
2019-03-24T23:26:12.289Z,23.55
2019-03-24T23:28:40.708Z,22.67
2019-03-24T23:31:09.126Z,22.27
2019-03-24T23:33:37.548Z,22.13
2019-03-24T23:36:06.053Z,22.80
2019-03-24T23:38:34.464Z,22.90
2019-03-24T23:41:02.872Z,21.80
2019-03-24T23:43:31.306Z,20.90
2019-03-24T23:45:59.728Z,21.62
2019-03-24T23:48:27.909Z,22.40
2019-03-24T23:50:56.332Z,22.58
2019-03-24T23:53:24.756Z,22.25
2019-03-24T23:55:53.169Z,22.40
2019-03-24T23:58:21.572Z,23.60
